createdAt,value
2023-02-22T00:00:02.103Z,9.37
2023-02-22T00:00:19.560Z,9.38
2023-02-22T00:00:33.915Z,9.34
2023-02-22T00:00:46.827Z,9.34
2023-02-22T00:00:59.020Z,9.35
2023-02-22T00:01:11.582Z,9.36
2023-02-22T00:01:29.872Z,9.35
2023-02-22T00:01:42.414Z,9.34
2023-02-22T00:01:54.836Z,9.34
2023-02-22T00:02:09.952Z,9.35
2023-02-22T00:02:31.935Z,9.34
2023-02-22T00:02:45.034Z,9.37
2023-02-22T00:02:59.954Z,9.36
2023-02-22T00:03:14.804Z,9.32
2023-02-22T00:03:31.005Z,9.33
2023-02-22T00:03:45.533Z,9.31
2023-02-22T00:04:00.764Z,9.34
2023-02-22T00:04:15.374Z,9.34
2023-02-22T00:04:30.481Z,9.32
2023-02-22T00:04:42.882Z,9.32
2023-02-22T00:05:04.889Z,9.32
2023-02-22T00:05:19.777Z,9.30
2023-02-22T00:05:36.629Z,9.29
2023-02-22T00:05:54.086Z,9.29
2023-02-22T00:06:16.772Z,9.30
2023-02-22T00:06:38.730Z,9.29
2023-02-22T00:06:52.359Z,9.29
2023-02-22T00:07:04.797Z,9.28
2023-02-22T00:07:28.026Z,9.30
2023-02-22T00:07:47.182Z,9.29
2023-02-22T00:08:00.173Z,9.28
2023-02-22T00:08:17.810Z,9.29
2023-02-22T00:08:32.301Z,9.29
2023-02-22T00:08:54.004Z,9.30
2023-02-22T00:09:07.011Z,9.31
2023-02-22T00:09:19.775Z,9.30
2023-02-22T00:09:34.271Z,9.30
2023-02-22T00:09:49.230Z,9.32
2023-02-22T00:10:03.143Z,9.31
2023-02-22T00:10:20.655Z,9.30
2023-02-22T00:10:34.792Z,9.30
2023-02-22T00:10:53.300Z,9.29
2023-02-22T00:11:11.968Z,9.27
2023-02-22T00:11:54.702Z,9.26
2023-02-22T00:12:10.372Z,9.24
2023-02-22T00:12:24.848Z,9.26
2023-02-22T00:12:39.339Z,9.27
2023-02-22T00:12:52.238Z,9.27
2023-02-22T00:13:17.404Z,9.26
2023-02-22T00:13:31.934Z,9.25
2023-02-22T00:13:54.557Z,9.24
2023-02-22T00:14:10.882Z,9.26
2023-02-22T00:14:28.171Z,9.24
2023-02-22T00:14:41.244Z,9.26
2023-02-22T00:14:54.475Z,9.25
2023-02-22T00:15:07.804Z,9.26
2023-02-22T00:15:22.461Z,9.21
2023-02-22T00:15:37.892Z,9.26
2023-02-22T00:15:51.930Z,9.26
2023-02-22T00:16:12.174Z,9.24
2023-02-22T00:16:27.419Z,9.23
2023-02-22T00:16:45.157Z,9.25
2023-02-22T00:17:01.701Z,9.20
2023-02-22T00:17:15.512Z,9.23
2023-02-22T00:17:28.589Z,9.24
2023-02-22T00:17:41.033Z,9.24
2023-02-22T00:17:53.467Z,9.22
2023-02-22T00:18:11.096Z,9.29
2023-02-22T00:18:23.979Z,9.29
2023-02-22T00:18:36.982Z,9.29
2023-02-22T00:18:51.803Z,9.27
2023-02-22T00:19:11.800Z,9.26
2023-02-22T00:19:25.270Z,9.27
2023-02-22T00:19:40.273Z,9.26
2023-02-22T00:19:54.425Z,9.23
2023-02-22T00:20:11.115Z,9.27
2023-02-22T00:20:27.962Z,9.26
2023-02-22T00:20:40.876Z,9.26
2023-02-22T00:20:53.377Z,9.26
2023-02-22T00:21:08.152Z,9.26
2023-02-22T00:21:23.238Z,9.25
2023-02-22T00:21:36.788Z,9.25
2023-02-22T00:21:52.082Z,9.24
2023-02-22T00:22:06.581Z,9.25
2023-02-22T00:22:22.476Z,9.22
2023-02-22T00:22:36.234Z,9.23
2023-02-22T00:22:58.053Z,9.17
2023-02-22T00:23:16.638Z,9.22
2023-02-22T00:23:33.052Z,9.18
2023-02-22T00:23:48.871Z,9.20
2023-02-22T00:24:04.185Z,9.20
2023-02-22T00:24:16.506Z,9.18
2023-02-22T00:24:34.188Z,9.17
2023-02-22T00:24:47.808Z,9.15
2023-02-22T00:25:00.141Z,9.16
2023-02-22T00:25:14.148Z,9.15
2023-02-22T00:25:26.711Z,9.14
2023-02-22T00:25:39.847Z,9.16
2023-02-22T00:25:52.392Z,9.15
2023-02-22T00:26:07.170Z,9.15
2023-02-22T00:26:22.567Z,9.12
2023-02-22T00:26:36.880Z,9.12
2023-02-22T00:26:52.782Z,9.11
2023-02-22T00:27:05.830Z,9.10
2023-02-22T00:27:19.630Z,9.09
2023-02-22T00:27:32.270Z,9.08
2023-02-22T00:27:47.461Z,9.07
2023-02-22T00:28:01.414Z,9.07
2023-02-22T00:28:14.113Z,9.06
2023-02-22T00:28:27.385Z,9.06
2023-02-22T00:28:40.321Z,9.04
2023-02-22T00:28:55.936Z,9.02
2023-02-22T00:29:12.074Z,9.02
2023-02-22T00:29:27.094Z,8.97
2023-02-22T00:29:47.293Z,9.01
2023-02-22T00:29:59.686Z,8.99
2023-02-22T00:30:19.639Z,9.02
2023-02-22T00:30:33.552Z,9.03
2023-02-22T00:30:46.378Z,9.00
2023-02-22T00:31:00.169Z,8.99
2023-02-22T00:31:17.490Z,9.02
2023-02-22T00:31:37.395Z,9.02
2023-02-22T00:31:50.315Z,9.02
2023-02-22T00:32:08.695Z,9.03
2023-02-22T00:32:22.940Z,8.94
2023-02-22T00:32:38.712Z,9.03
2023-02-22T00:32:51.851Z,9.01
2023-02-22T00:33:04.461Z,8.99
2023-02-22T00:33:20.824Z,9.00
2023-02-22T00:33:33.774Z,8.99
2023-02-22T00:33:51.729Z,8.99
2023-02-22T00:34:05.867Z,8.99
2023-02-22T00:34:23.752Z,8.96
2023-02-22T00:34:37.174Z,8.95
2023-02-22T00:34:54.291Z,8.97
2023-02-22T00:35:09.426Z,8.97
2023-02-22T00:35:23.971Z,8.97
2023-02-22T00:35:38.233Z,8.98
2023-02-22T00:35:52.342Z,8.96
2023-02-22T00:36:09.078Z,8.95
2023-02-22T00:36:22.910Z,8.95
2023-02-22T00:36:43.414Z,8.96
2023-02-22T00:36:55.641Z,8.93
2023-02-22T00:37:09.977Z,8.98
2023-02-22T00:37:22.782Z,8.96
2023-02-22T00:37:38.525Z,8.94
2023-02-22T00:37:51.520Z,8.96
2023-02-22T00:38:13.741Z,8.94
2023-02-22T00:38:26.561Z,8.96
2023-02-22T00:38:38.853Z,8.97
2023-02-22T00:38:53.637Z,8.95
2023-02-22T00:39:15.521Z,8.95
2023-02-22T00:39:29.551Z,8.97
2023-02-22T00:39:41.621Z,8.98
2023-02-22T00:39:54.707Z,8.96
2023-02-22T00:40:09.384Z,8.99
2023-02-22T00:40:24.359Z,8.98
2023-02-22T00:40:36.758Z,8.96
2023-02-22T00:40:49.793Z,8.97
2023-02-22T00:41:02.821Z,8.98
2023-02-22T00:41:16.650Z,8.98
2023-02-22T00:41:29.843Z,8.94
2023-02-22T00:41:46.162Z,8.97
2023-02-22T00:42:03.590Z,8.96
2023-02-22T00:42:16.463Z,8.95
2023-02-22T00:42:29.850Z,8.97
2023-02-22T00:42:46.368Z,8.98
2023-02-22T00:43:06.543Z,8.95
2023-02-22T00:43:22.216Z,8.94
2023-02-22T00:43:35.709Z,8.94
2023-02-22T00:43:49.718Z,8.94
2023-02-22T00:44:04.988Z,8.92
2023-02-22T00:44:18.756Z,8.93
2023-02-22T00:44:31.231Z,8.93
2023-02-22T00:44:47.771Z,8.92
2023-02-22T00:45:00.682Z,8.91
2023-02-22T00:45:13.779Z,8.89
2023-02-22T00:45:28.297Z,8.89
2023-02-22T00:45:42.796Z,8.87
2023-02-22T00:45:56.670Z,8.88
2023-02-22T00:46:14.117Z,8.87
2023-02-22T00:46:26.687Z,8.87
2023-02-22T00:46:39.239Z,8.87
2023-02-22T00:46:53.798Z,8.86
2023-02-22T00:47:09.752Z,8.82
2023-02-22T00:47:24.782Z,8.84
2023-02-22T00:47:40.034Z,8.81
2023-02-22T00:47:53.778Z,8.79
2023-02-22T00:48:10.451Z,8.80
2023-02-22T00:48:27.167Z,8.76
2023-02-22T00:48:42.104Z,8.75
2023-02-22T00:48:59.713Z,8.72
2023-02-22T00:49:12.849Z,8.72
2023-02-22T00:49:25.444Z,8.70
2023-02-22T00:49:42.131Z,8.70
2023-02-22T00:49:57.108Z,8.67
2023-02-22T00:50:13.446Z,8.65
2023-02-22T00:50:33.251Z,8.66
2023-02-22T00:50:47.424Z,8.65
2023-02-22T00:51:03.309Z,8.64
2023-02-22T00:51:15.905Z,8.61
2023-02-22T00:51:30.140Z,8.58
2023-02-22T00:51:43.258Z,8.59
2023-02-22T00:51:58.643Z,8.57
2023-02-22T00:52:14.749Z,8.57
2023-02-22T00:52:28.516Z,8.57
2023-02-22T00:52:41.914Z,8.55
2023-02-22T00:52:55.422Z,8.53
2023-02-22T00:53:08.441Z,8.52
2023-02-22T00:53:25.789Z,8.54
2023-02-22T00:53:42.443Z,8.54
2023-02-22T00:53:57.026Z,8.53
2023-02-22T00:54:13.500Z,8.52
2023-02-22T00:54:25.939Z,8.53
2023-02-22T00:54:40.796Z,8.52
2023-02-22T00:54:53.573Z,8.50
2023-02-22T00:55:09.297Z,8.50
2023-02-22T00:55:26.972Z,8.50
2023-02-22T00:55:40.540Z,8.49
2023-02-22T00:55:54.236Z,8.49
2023-02-22T00:56:08.842Z,8.49
2023-02-22T00:56:21.079Z,8.49
2023-02-22T00:56:38.313Z,8.47
2023-02-22T00:56:52.911Z,8.47
2023-02-22T00:57:05.760Z,8.45
2023-02-22T00:57:22.388Z,8.46
2023-02-22T00:57:36.883Z,8.44
2023-02-22T00:57:51.876Z,8.44
2023-02-22T00:58:05.999Z,8.44
2023-02-22T00:58:20.668Z,8.43
2023-02-22T00:58:35.643Z,8.42
2023-02-22T00:58:49.910Z,8.41
2023-02-22T00:59:02.687Z,8.45
2023-02-22T00:59:15.867Z,8.42
2023-02-22T00:59:32.289Z,8.43
2023-02-22T00:59:44.605Z,8.41
2023-02-22T00:59:59.452Z,8.43
2023-02-22T01:00:20.039Z,8.40
2023-02-22T01:00:35.170Z,8.41
2023-02-22T01:00:48.677Z,8.36
2023-02-22T01:01:03.836Z,8.40
2023-02-22T01:01:20.222Z,8.33
2023-02-22T01:01:34.277Z,8.36
2023-02-22T01:01:48.877Z,8.37
2023-02-22T01:02:01.893Z,8.37
2023-02-22T01:02:14.998Z,8.37
2023-02-22T01:02:28.438Z,8.36
2023-02-22T01:02:45.622Z,8.35
2023-02-22T01:03:02.208Z,8.33
2023-02-22T01:03:18.522Z,8.34
2023-02-22T01:03:36.061Z,8.34
2023-02-22T01:03:50.511Z,8.33
2023-02-22T01:04:09.943Z,8.32
2023-02-22T01:04:24.835Z,8.32
2023-02-22T01:04:45.084Z,8.32
2023-02-22T01:05:00.627Z,8.28
2023-02-22T01:05:14.368Z,8.30
2023-02-22T01:05:29.326Z,8.30
2023-02-22T01:05:42.250Z,8.25
2023-02-22T01:05:54.895Z,8.29
2023-02-22T01:06:15.709Z,8.28
2023-02-22T01:06:31.623Z,8.27
2023-02-22T01:06:44.070Z,8.26
2023-02-22T01:06:59.314Z,8.25
2023-02-22T01:07:14.039Z,8.26
2023-02-22T01:07:29.837Z,8.26
2023-02-22T01:07:45.738Z,8.26
2023-02-22T01:08:04.262Z,8.24
2023-02-22T01:08:26.076Z,8.22
2023-02-22T01:08:50.549Z,8.22
2023-02-22T01:09:04.798Z,8.22
2023-02-22T01:09:27.989Z,8.22
2023-02-22T01:09:54.541Z,8.18
2023-02-22T01:10:07.972Z,8.20
2023-02-22T01:10:24.264Z,8.15
2023-02-22T01:10:38.753Z,8.20
2023-02-22T01:10:53.189Z,8.18
2023-02-22T01:11:10.708Z,8.14
2023-02-22T01:11:24.089Z,8.20
2023-02-22T01:11:38.969Z,8.17
2023-02-22T01:11:53.738Z,8.17
2023-02-22T01:12:07.455Z,8.17
2023-02-22T01:12:23.324Z,8.18
2023-02-22T01:12:35.417Z,8.17
2023-02-22T01:12:48.159Z,8.16
2023-02-22T01:13:04.031Z,8.19
2023-02-22T01:13:18.191Z,8.19
2023-02-22T01:13:34.783Z,8.18
2023-02-22T01:13:49.225Z,8.15
2023-02-22T01:14:03.041Z,8.18
2023-02-22T01:14:16.073Z,8.17
2023-02-22T01:14:43.482Z,8.17
2023-02-22T01:15:00.733Z,8.16
2023-02-22T01:15:14.843Z,8.17
2023-02-22T01:15:35.245Z,8.14
2023-02-22T01:15:51.540Z,8.15
2023-02-22T01:16:04.812Z,8.18
2023-02-22T01:16:19.881Z,8.18
2023-02-22T01:16:35.130Z,8.18
2023-02-22T01:16:51.459Z,8.18
2023-02-22T01:17:12.737Z,8.18
2023-02-22T01:17:27.052Z,8.18
2023-02-22T01:17:47.836Z,8.18
2023-02-22T01:18:05.039Z,8.14
2023-02-22T01:18:28.480Z,8.15
2023-02-22T01:18:56.215Z,8.18
2023-02-22T01:19:10.143Z,8.17
2023-02-22T01:19:24.805Z,8.17
2023-02-22T01:19:51.943Z,8.17
2023-02-22T01:20:10.716Z,8.12
2023-02-22T01:20:27.578Z,8.17
2023-02-22T01:20:41.475Z,8.18
2023-02-22T01:20:55.311Z,8.14
2023-02-22T01:21:17.973Z,8.15
2023-02-22T01:21:32.840Z,8.16
2023-02-22T01:21:49.232Z,8.17
2023-02-22T01:22:03.584Z,8.16
2023-02-22T01:22:17.346Z,8.16
2023-02-22T01:22:38.932Z,8.21
2023-02-22T01:22:59.927Z,8.21
2023-02-22T01:23:17.482Z,8.20
2023-02-22T01:23:33.540Z,8.17
2023-02-22T01:23:47.821Z,8.18
2023-02-22T01:24:01.322Z,8.21
2023-02-22T01:24:15.291Z,8.18
2023-02-22T01:24:28.002Z,8.21
2023-02-22T01:24:41.468Z,8.20
2023-02-22T01:24:54.003Z,8.16
2023-02-22T01:25:08.048Z,8.20
2023-02-22T01:25:22.893Z,8.20
2023-02-22T01:25:37.705Z,8.19
2023-02-22T01:25:50.534Z,8.20
2023-02-22T01:26:03.012Z,8.19
2023-02-22T01:26:16.840Z,8.18
2023-02-22T01:26:29.411Z,8.20
2023-02-22T01:26:41.802Z,8.19
2023-02-22T01:26:55.031Z,8.19
2023-02-22T01:27:07.588Z,8.19
2023-02-22T01:27:20.142Z,8.20
2023-02-22T01:27:33.036Z,8.19
2023-02-22T01:27:45.710Z,8.20
2023-02-22T01:28:01.940Z,8.20
2023-02-22T01:28:17.070Z,8.18
2023-02-22T01:28:29.958Z,8.20
2023-02-22T01:28:42.777Z,8.18
2023-02-22T01:28:55.077Z,8.20
2023-02-22T01:29:08.570Z,8.20
2023-02-22T01:29:22.613Z,8.18
2023-02-22T01:29:38.553Z,8.21
2023-02-22T01:29:54.138Z,8.21
2023-02-22T01:30:10.987Z,8.21
2023-02-22T01:30:27.426Z,8.21
2023-02-22T01:30:40.274Z,8.19
2023-02-22T01:30:55.802Z,8.21
2023-02-22T01:31:11.739Z,8.21
2023-02-22T01:31:24.243Z,8.22
2023-02-22T01:31:39.819Z,8.20
2023-02-22T01:31:53.514Z,8.21
2023-02-22T01:32:07.903Z,8.22
2023-02-22T01:32:20.390Z,8.21
2023-02-22T01:32:32.411Z,8.21
2023-02-22T01:32:45.563Z,8.20
2023-02-22T01:33:01.102Z,8.19
2023-02-22T01:33:15.764Z,8.23
2023-02-22T01:33:30.938Z,8.22
2023-02-22T01:33:46.333Z,8.21
2023-02-22T01:34:02.328Z,8.19
2023-02-22T01:34:17.012Z,8.20
2023-02-22T01:34:37.589Z,8.23
2023-02-22T01:34:49.968Z,8.22
2023-02-22T01:35:09.503Z,8.22
2023-02-22T01:35:26.085Z,8.21
2023-02-22T01:35:40.509Z,8.21
2023-02-22T01:35:54.631Z,8.23
2023-02-22T01:36:09.155Z,8.24
2023-02-22T01:36:22.082Z,8.23
2023-02-22T01:36:37.345Z,8.23
2023-02-22T01:36:49.928Z,8.24
2023-02-22T01:37:03.315Z,8.25
2023-02-22T01:37:18.652Z,8.25
2023-02-22T01:37:30.987Z,8.24
2023-02-22T01:37:43.694Z,8.23
2023-02-22T01:37:58.830Z,8.24
2023-02-22T01:38:20.320Z,8.26
2023-02-22T01:38:35.582Z,8.24
2023-02-22T01:38:49.290Z,8.25
2023-02-22T01:39:02.052Z,8.25
2023-02-22T01:39:14.490Z,8.22
2023-02-22T01:39:30.194Z,8.23
2023-02-22T01:39:45.958Z,8.24
2023-02-22T01:39:58.396Z,8.25
2023-02-22T01:40:18.014Z,8.26
2023-02-22T01:40:33.923Z,8.24
2023-02-22T01:40:49.896Z,8.23
2023-02-22T01:41:02.675Z,8.24
2023-02-22T01:41:14.977Z,8.21
2023-02-22T01:41:29.695Z,8.23
2023-02-22T01:41:43.925Z,8.20
2023-02-22T01:42:00.497Z,8.21
2023-02-22T01:42:15.375Z,8.20
2023-02-22T01:42:28.266Z,8.21
2023-02-22T01:42:41.458Z,8.18
2023-02-22T01:42:55.772Z,8.20
2023-02-22T01:43:21.985Z,8.18
2023-02-22T01:43:36.045Z,8.17
2023-02-22T01:43:48.706Z,8.17
2023-02-22T01:44:18.924Z,8.15
2023-02-22T01:44:35.131Z,8.13
2023-02-22T01:45:22.030Z,8.13
2023-02-22T01:45:54.718Z,8.10
2023-02-22T01:46:19.524Z,8.10
2023-02-22T01:46:34.946Z,8.10
2023-02-22T01:46:47.529Z,8.08
2023-02-22T01:47:01.763Z,8.08
2023-02-22T01:47:14.260Z,8.07
2023-02-22T01:47:27.202Z,8.07
2023-02-22T01:47:40.453Z,8.05
2023-02-22T01:48:02.149Z,8.06
2023-02-22T01:48:24.025Z,8.01
2023-02-22T01:48:41.191Z,8.04
2023-02-22T01:49:01.311Z,8.11
2023-02-22T01:49:16.090Z,8.09
2023-02-22T01:49:35.642Z,8.08
2023-02-22T01:49:50.611Z,8.11
2023-02-22T01:50:05.743Z,8.09
2023-02-22T01:50:22.411Z,8.11
2023-02-22T01:50:39.351Z,8.11
2023-02-22T01:50:56.938Z,8.12
2023-02-22T01:51:15.766Z,8.12
2023-02-22T01:51:33.692Z,8.10
2023-02-22T01:51:50.449Z,8.13
2023-02-22T01:52:11.096Z,8.12
2023-02-22T01:52:25.735Z,8.10
2023-02-22T01:52:43.132Z,8.11
2023-02-22T01:52:56.234Z,8.11
2023-02-22T01:53:19.611Z,8.10
2023-02-22T01:53:38.579Z,8.09
2023-02-22T01:53:54.823Z,8.10
2023-02-22T01:54:10.682Z,8.10
2023-02-22T01:54:28.169Z,8.11
2023-02-22T01:54:46.738Z,8.10
2023-02-22T01:55:00.348Z,8.07
2023-02-22T01:55:16.119Z,8.08
2023-02-22T01:55:29.424Z,8.09
2023-02-22T01:55:43.383Z,8.09
2023-02-22T01:55:58.349Z,8.07
2023-02-22T01:56:11.664Z,8.09
2023-02-22T01:56:26.332Z,8.07
2023-02-22T01:56:46.277Z,8.07
2023-02-22T01:57:06.364Z,8.05
2023-02-22T01:57:24.005Z,8.05
2023-02-22T01:57:38.076Z,8.03
2023-02-22T01:57:52.324Z,8.03
2023-02-22T01:58:08.289Z,8.03
2023-02-22T01:58:24.242Z,8.02
2023-02-22T01:58:41.370Z,8.00
2023-02-22T01:59:04.588Z,8.01
2023-02-22T01:59:21.963Z,8.01
2023-02-22T01:59:40.730Z,7.99
2023-02-22T01:59:56.063Z,7.97
2023-02-22T02:00:14.592Z,7.93
2023-02-22T02:00:29.574Z,7.92
2023-02-22T02:00:45.792Z,7.92
2023-02-22T02:01:00.415Z,7.95
2023-02-22T02:01:16.832Z,7.96
2023-02-22T02:01:30.620Z,7.94
2023-02-22T02:01:43.952Z,7.96
2023-02-22T02:01:57.643Z,7.97
2023-02-22T02:02:10.490Z,7.97
2023-02-22T02:02:24.176Z,7.93
2023-02-22T02:02:43.184Z,7.94
2023-02-22T02:02:59.046Z,7.97
2023-02-22T02:03:18.248Z,7.99
2023-02-22T02:03:35.760Z,7.97
2023-02-22T02:03:50.496Z,7.99
2023-02-22T02:04:09.495Z,8.00
2023-02-22T02:04:24.142Z,7.99
2023-02-22T02:04:42.944Z,8.00
2023-02-22T02:04:58.140Z,8.03
2023-02-22T02:05:15.184Z,8.00
2023-02-22T02:05:29.400Z,8.01
2023-02-22T02:05:42.324Z,7.99
2023-02-22T02:05:59.871Z,8.02
2023-02-22T02:06:15.404Z,8.02
2023-02-22T02:06:40.894Z,8.02
2023-02-22T02:06:54.603Z,8.03
2023-02-22T02:07:09.963Z,7.99
2023-02-22T02:07:24.835Z,8.03
2023-02-22T02:07:42.175Z,8.01
2023-02-22T02:07:54.630Z,8.02
2023-02-22T02:08:16.607Z,8.01
2023-02-22T02:08:36.981Z,8.03
2023-02-22T02:08:59.105Z,8.03
2023-02-22T02:09:18.245Z,8.03
2023-02-22T02:09:37.964Z,8.05
2023-02-22T02:09:54.596Z,8.04
2023-02-22T02:10:09.956Z,8.08
2023-02-22T02:10:28.146Z,8.07
2023-02-22T02:10:44.526Z,8.08
2023-02-22T02:11:00.875Z,8.09
2023-02-22T02:11:15.918Z,8.12
2023-02-22T02:11:30.079Z,8.09
2023-02-22T02:11:46.577Z,8.09
2023-02-22T02:12:00.058Z,8.14
2023-02-22T02:12:31.588Z,8.18
2023-02-22T02:12:47.547Z,8.20
2023-02-22T02:13:01.087Z,8.20
2023-02-22T02:13:14.191Z,8.17
2023-02-22T02:13:28.375Z,8.20
2023-02-22T02:13:40.959Z,8.23
2023-02-22T02:13:56.809Z,8.21
2023-02-22T02:14:10.792Z,8.23
2023-02-22T02:14:24.176Z,8.24
2023-02-22T02:14:37.906Z,8.26
2023-02-22T02:14:52.855Z,8.25
2023-02-22T02:15:22.071Z,8.28
2023-02-22T02:15:41.248Z,8.27
2023-02-22T02:15:58.644Z,8.29
2023-02-22T02:16:14.579Z,8.29
2023-02-22T02:16:37.658Z,8.30
2023-02-22T02:16:52.422Z,8.31
2023-02-22T02:17:07.701Z,8.33
2023-02-22T02:17:23.759Z,8.34
2023-02-22T02:17:36.553Z,8.35
2023-02-22T02:17:53.154Z,8.32
2023-02-22T02:18:07.772Z,8.35
2023-02-22T02:18:23.388Z,8.35
2023-02-22T02:18:37.397Z,8.37
2023-02-22T02:18:51.024Z,8.37
2023-02-22T02:19:11.198Z,8.37
2023-02-22T02:19:36.937Z,8.38
2023-02-22T02:19:56.793Z,8.39
2023-02-22T02:20:17.742Z,8.41
2023-02-22T02:20:42.076Z,8.42
2023-02-22T02:21:12.008Z,8.41
2023-02-22T02:21:43.883Z,8.44
2023-02-22T02:22:32.320Z,8.43
2023-02-22T02:22:59.754Z,8.46
2023-02-22T02:23:51.962Z,8.47
2023-02-22T02:24:43.629Z,8.53
2023-02-22T02:25:31.116Z,8.61
2023-02-22T02:26:17.442Z,8.59
2023-02-22T02:27:04.239Z,8.64
2023-02-22T02:27:23.620Z,8.61
2023-02-22T02:27:58.558Z,8.65
2023-02-22T02:29:01.796Z,8.68
2023-02-22T02:30:01.486Z,8.70
2023-02-22T02:30:36.748Z,8.71
2023-02-22T02:31:14.327Z,8.71
2023-02-22T02:32:08.075Z,8.70
2023-02-22T02:32:32.511Z,8.73
2023-02-22T02:32:55.855Z,8.74
2023-02-22T02:33:15.547Z,8.73
2023-02-22T02:33:33.712Z,8.72
2023-02-22T02:33:56.745Z,8.74
2023-02-22T02:34:26.412Z,8.76
2023-02-22T02:34:50.290Z,8.74
2023-02-22T02:35:12.921Z,8.76
2023-02-22T02:35:40.767Z,8.71
2023-02-22T02:36:03.096Z,8.76
2023-02-22T02:36:22.239Z,8.76
2023-02-22T02:36:45.114Z,8.76
2023-02-22T02:37:08.100Z,8.80
2023-02-22T02:37:31.697Z,8.76
2023-02-22T02:37:51.783Z,8.79
2023-02-22T02:38:16.694Z,8.79
2023-02-22T02:38:34.259Z,8.75
2023-02-22T02:38:54.937Z,8.75
2023-02-22T02:39:14.872Z,8.75
2023-02-22T02:39:29.819Z,8.74
2023-02-22T02:39:51.630Z,8.75
2023-02-22T02:40:15.941Z,8.74
2023-02-22T02:40:41.135Z,8.72
2023-02-22T02:41:03.545Z,8.71
2023-02-22T02:41:24.710Z,8.71
2023-02-22T02:41:45.016Z,8.70
2023-02-22T02:42:00.255Z,8.70
2023-02-22T02:42:16.991Z,8.71
2023-02-22T02:42:41.923Z,8.68
2023-02-22T02:43:04.579Z,8.67
2023-02-22T02:43:29.450Z,8.68
2023-02-22T02:43:51.286Z,8.65
2023-02-22T02:44:09.088Z,8.66
2023-02-22T02:44:28.643Z,8.66
2023-02-22T02:44:48.084Z,8.65
2023-02-22T02:45:05.154Z,8.60
2023-02-22T02:45:24.777Z,8.64
2023-02-22T02:45:44.136Z,8.63
2023-02-22T02:46:11.396Z,8.63
2023-02-22T02:46:31.950Z,8.62
2023-02-22T02:46:51.690Z,8.61
2023-02-22T02:47:11.810Z,8.59
2023-02-22T02:47:31.673Z,8.55
2023-02-22T02:47:49.286Z,8.59
2023-02-22T02:48:04.412Z,8.61
2023-02-22T02:48:21.516Z,8.58
2023-02-22T02:48:42.893Z,8.62
2023-02-22T02:48:59.375Z,8.62
2023-02-22T02:49:18.118Z,8.59
2023-02-22T02:49:36.355Z,8.62
2023-02-22T02:49:56.099Z,8.62
2023-02-22T02:50:17.372Z,8.62
2023-02-22T02:50:37.676Z,8.61
2023-02-22T02:50:55.457Z,8.61
2023-02-22T02:51:18.833Z,8.62
2023-02-22T02:51:36.885Z,8.62
2023-02-22T02:51:52.427Z,8.59
2023-02-22T02:52:07.138Z,8.59
2023-02-22T02:52:25.101Z,8.61
2023-02-22T02:52:40.865Z,8.61
2023-02-22T02:52:58.884Z,8.58
2023-02-22T02:53:16.064Z,8.59
2023-02-22T02:53:37.415Z,8.60
2023-02-22T02:53:52.503Z,8.59
2023-02-22T02:54:09.346Z,8.58
2023-02-22T02:54:26.849Z,8.58
2023-02-22T02:54:43.287Z,8.54
2023-02-22T02:54:56.855Z,8.55
2023-02-22T02:55:13.256Z,8.56
2023-02-22T02:55:28.137Z,8.56
2023-02-22T02:55:44.609Z,8.55
2023-02-22T02:55:59.112Z,8.51
2023-02-22T02:56:15.077Z,8.54
2023-02-22T02:56:31.207Z,8.52
2023-02-22T02:56:51.142Z,8.52
2023-02-22T02:57:04.962Z,8.52
2023-02-22T02:57:19.777Z,8.49
2023-02-22T02:57:33.031Z,8.46
2023-02-22T02:57:47.755Z,8.49
2023-02-22T02:58:06.425Z,8.49
2023-02-22T02:58:24.267Z,8.47
2023-02-22T02:58:49.117Z,8.49
2023-02-22T02:59:01.510Z,8.48
2023-02-22T02:59:32.855Z,8.44
2023-02-22T02:59:46.489Z,8.45
2023-02-22T03:00:01.991Z,8.44
2023-02-22T03:00:20.952Z,8.43
2023-02-22T03:00:37.772Z,8.42
2023-02-22T03:00:54.387Z,8.41
2023-02-22T03:01:08.828Z,8.41
2023-02-22T03:01:42.906Z,8.39
2023-02-22T03:02:10.275Z,8.35
2023-02-22T03:02:38.989Z,8.36
2023-02-22T03:03:05.946Z,8.34
2023-02-22T03:03:36.758Z,8.32
2023-02-22T03:04:06.406Z,8.27
2023-02-22T03:04:37.789Z,8.29
2023-02-22T03:05:11.141Z,8.27
2023-02-22T03:05:42.756Z,8.25
2023-02-22T03:06:16.312Z,8.25
2023-02-22T03:07:06.563Z,8.28
2023-02-22T03:07:48.254Z,8.26
2023-02-22T03:08:09.091Z,8.18
2023-02-22T03:08:30.033Z,8.22
2023-02-22T03:08:46.362Z,8.21
2023-02-22T03:09:10.885Z,8.18
2023-02-22T03:09:38.976Z,8.20
2023-02-22T03:10:06.386Z,8.18
2023-02-22T03:10:36.666Z,8.18
2023-02-22T03:11:04.288Z,8.17
2023-02-22T03:11:21.958Z,8.17
2023-02-22T03:11:46.043Z,8.15
2023-02-22T03:12:11.974Z,8.16
2023-02-22T03:12:38.454Z,8.15
2023-02-22T03:13:01.015Z,8.13
2023-02-22T03:13:22.573Z,8.11
2023-02-22T03:13:40.752Z,8.12
2023-02-22T03:14:02.772Z,8.11
2023-02-22T03:14:23.016Z,8.08
2023-02-22T03:14:41.189Z,8.09
2023-02-22T03:15:08.931Z,8.08
2023-02-22T03:15:36.099Z,8.08
2023-02-22T03:15:56.800Z,8.07
2023-02-22T03:16:21.314Z,8.06
2023-02-22T03:16:45.156Z,8.04
2023-02-22T03:17:05.685Z,8.04
2023-02-22T03:17:28.676Z,8.03
2023-02-22T03:17:52.237Z,8.03
2023-02-22T03:18:07.862Z,8.02
2023-02-22T03:18:31.534Z,8.02
2023-02-22T03:18:54.863Z,8.02
2023-02-22T03:19:12.956Z,8.01
2023-02-22T03:19:32.567Z,8.00
2023-02-22T03:19:49.839Z,7.99
2023-02-22T03:20:06.638Z,7.98
2023-02-22T03:20:27.698Z,7.97
2023-02-22T03:20:56.232Z,7.96
2023-02-22T03:21:20.498Z,7.95
2023-02-22T03:21:39.493Z,7.93
2023-02-22T03:21:58.217Z,7.87
2023-02-22T03:22:14.843Z,7.91
2023-02-22T03:22:30.687Z,7.94
2023-02-22T03:22:52.846Z,7.92
2023-02-22T03:23:16.316Z,7.94
2023-02-22T03:23:35.740Z,7.88
2023-02-22T03:23:55.425Z,7.90
2023-02-22T03:24:18.040Z,7.91
2023-02-22T03:24:38.525Z,7.90
2023-02-22T03:24:58.710Z,7.91
2023-02-22T03:25:18.194Z,7.91
2023-02-22T03:25:34.722Z,7.90
2023-02-22T03:25:52.214Z,7.88
2023-02-22T03:26:12.041Z,7.86
2023-02-22T03:26:32.031Z,7.89
2023-02-22T03:26:54.077Z,7.89
2023-02-22T03:27:12.725Z,7.88
2023-02-22T03:27:43.894Z,7.89
2023-02-22T03:28:01.026Z,7.86
2023-02-22T03:28:19.715Z,7.89
2023-02-22T03:28:37.977Z,7.89
2023-02-22T03:29:01.490Z,7.88
2023-02-22T03:29:21.471Z,7.87
2023-02-22T03:29:42.957Z,7.90
2023-02-22T03:30:06.490Z,7.89
2023-02-22T03:30:33.389Z,7.88
2023-02-22T03:30:52.376Z,7.87
2023-02-22T03:31:11.288Z,7.88
2023-02-22T03:31:30.296Z,7.87
2023-02-22T03:31:48.940Z,7.89
2023-02-22T03:32:08.327Z,7.90
2023-02-22T03:32:25.429Z,7.88
2023-02-22T03:32:44.511Z,7.87
2023-02-22T03:33:06.785Z,7.89
2023-02-22T03:33:26.424Z,7.86
2023-02-22T03:33:42.487Z,7.87
2023-02-22T03:33:59.716Z,7.89
2023-02-22T03:34:19.939Z,7.89
2023-02-22T03:34:38.209Z,7.87
2023-02-22T03:34:57.342Z,7.87
2023-02-22T03:35:17.572Z,7.88
2023-02-22T03:35:43.852Z,7.86
2023-02-22T03:36:08.809Z,7.87
2023-02-22T03:36:27.194Z,7.88
2023-02-22T03:36:45.472Z,7.86
2023-02-22T03:37:04.063Z,7.84
2023-02-22T03:37:22.169Z,7.87
2023-02-22T03:37:41.632Z,7.82
2023-02-22T03:37:57.470Z,7.87
2023-02-22T03:38:18.189Z,7.87
2023-02-22T03:38:36.599Z,7.87
2023-02-22T03:38:52.880Z,7.85
2023-02-22T03:39:13.940Z,7.86
2023-02-22T03:39:29.310Z,7.87
2023-02-22T03:39:46.820Z,7.87
2023-02-22T03:40:08.031Z,7.86
2023-02-22T03:40:26.659Z,7.88
2023-02-22T03:40:47.400Z,7.86
2023-02-22T03:41:02.688Z,7.87
2023-02-22T03:41:22.232Z,7.86
2023-02-22T03:41:38.258Z,7.85
2023-02-22T03:41:54.541Z,7.85
2023-02-22T03:42:25.379Z,7.85
2023-02-22T03:42:46.845Z,7.85
2023-02-22T03:43:03.864Z,7.81
2023-02-22T03:43:25.997Z,7.84
2023-02-22T03:43:55.208Z,7.84
2023-02-22T03:44:12.663Z,7.83
2023-02-22T03:44:30.912Z,7.81
2023-02-22T03:44:46.002Z,7.85
2023-02-22T03:45:02.757Z,7.85
2023-02-22T03:45:19.715Z,7.80
2023-02-22T03:45:36.570Z,7.84
2023-02-22T03:45:51.557Z,7.85
2023-02-22T03:46:09.759Z,7.85
2023-02-22T03:46:27.992Z,7.82
2023-02-22T03:46:43.023Z,7.85
2023-02-22T03:47:01.581Z,7.84
2023-02-22T03:47:22.249Z,7.79
2023-02-22T03:47:41.882Z,7.84
2023-02-22T03:48:05.914Z,7.82
2023-02-22T03:48:26.724Z,7.83
2023-02-22T03:48:49.622Z,7.84
2023-02-22T03:49:10.051Z,7.80
2023-02-22T03:49:33.487Z,7.81
2023-02-22T03:49:51.914Z,7.79
2023-02-22T03:50:14.856Z,7.80
2023-02-22T03:50:32.668Z,7.80
2023-02-22T03:50:45.798Z,7.78
2023-02-22T03:50:59.950Z,7.77
2023-02-22T03:51:15.582Z,7.78
2023-02-22T03:51:32.254Z,7.77
2023-02-22T03:51:49.666Z,7.78
2023-02-22T03:52:03.241Z,7.78
2023-02-22T03:52:22.313Z,7.77
2023-02-22T03:52:39.582Z,7.76
2023-02-22T03:53:01.771Z,7.75
2023-02-22T03:53:19.538Z,7.73
2023-02-22T03:53:38.508Z,7.74
2023-02-22T03:53:55.367Z,7.74
2023-02-22T03:54:12.041Z,7.74
2023-02-22T03:54:25.153Z,7.74
2023-02-22T03:54:40.005Z,7.72
2023-02-22T03:54:57.505Z,7.74
2023-02-22T03:55:11.938Z,7.74
2023-02-22T03:55:24.556Z,7.73
2023-02-22T03:55:37.665Z,7.73
2023-02-22T03:55:51.768Z,7.73
2023-02-22T03:56:11.486Z,7.72
2023-02-22T03:56:36.098Z,7.72